| time (UTC) | temp C | wind direction | speed KPH | gust KPH | rain 1hr cm | rain 24hr cm | rain mn cm | humidity % | barometer mb |
| 20260505153255 | 17 | 17 | 1.6 | 4.8 | 0.00 | 2.62 | 2.62 | 91 | 1007.8 |
| 20260505152753 | 17 | 33 | 0.0 | 1.6 | 0.00 | 2.62 | 2.62 | 93 | 1008.0 |
| 20260505152249 | 17 | 67 | 1.6 | 1.6 | 0.00 | 2.62 | 2.62 | 94 | 1008.3 |
| 20260505151749 | 17 | 10 | 1.6 | 4.8 | 0.00 | 2.62 | 2.62 | 93 | 1008.2 |
| 20260505151247 | 17 | 328 | 3.2 | 4.8 | 0.00 | 2.62 | 2.62 | 94 | 1008.3 |
| 20260505150744 | 17 | 42 | 0.0 | 4.8 | 0.00 | 2.62 | 2.62 | 93 | 1008.3 |
| 20260505150241 | 17 | 301 | 6.4 | 11.3 | 0.00 | 2.62 | 2.62 | 92 | 1008.3 |
| 20260505140211 | 16 | 177 | 1.6 | 3.2 | 0.00 | 2.62 | 2.62 | 99 | 1008.2 |
| 20260505130135 | 15 | 47 | 0.0 | 0.0 | 0.00 | 2.62 | 2.62 | 99 | 1008.2 |
| 20260505124624 | 15 | 35 | 0.0 | 0.0 | 0.00 | 2.62 | 2.62 | 99 | 1008.3 |
| 20260505124121 | 15 | 36 | 0.0 | 0.0 | 0.00 | 2.62 | 2.62 | 99 | 1008.2 |
| 20260505123617 | 15 | 36 | 0.0 | 0.0 | 0.00 | 2.62 | 2.62 | 99 | 1008.5 |
| 20260505123114 | 15 | 36 | 0.0 | 0.0 | 0.00 | 2.62 | 2.62 | 99 | 1008.4 |
| 20260505122611 | 15 | 36 | 0.0 | 0.0 | 0.00 | 2.62 | 2.62 | 99 | 1008.3 |
| 20260505122109 | 15 | 49 | 0.0 | 0.0 | 0.00 | 2.62 | 2.62 | 99 | 1008.4 |
| 20260505121605 | 15 | 50 | 0.0 | 0.0 | 0.00 | 2.62 | 2.62 | 99 | 1008.3 |
| 20260505121102 | 15 | 8 | 0.0 | 0.0 | 0.00 | 2.62 | 2.62 | 99 | 1008.2 |
| 20260505120558 | 15 | 8 | 0.0 | 0.0 | 0.00 | 2.62 | 2.62 | 99 | 1008.4 |
| 20260505120054 | 15 | 8 | 0.0 | 0.0 | 0.00 | 2.62 | 2.62 | 99 | 1008.6 |
| 20260505115553 | 15 | 8 | 0.0 | 0.0 | 0.00 | 2.62 | 2.62 | 99 | 1008.5 |
| 20260505115051 | 15 | 8 | 0.0 | 0.0 | 0.00 | 2.62 | 2.62 | 99 | 1008.4 |
| 20260505114548 | 15 | 8 | 0.0 | 0.0 | 0.00 | 2.62 | 2.62 | 99 | 1008.5 |
| 20260505114044 | 15 | 7 | 0.0 | 0.0 | 0.00 | 2.62 | 2.62 | 99 | 1008.6 |
| 20260505113541 | 15 | 7 | 0.0 | 0.0 | 0.00 | 2.62 | 2.62 | 99 | 1008.6 |
| 20260505113037 | 15 | 9 | 0.0 | 0.0 | 0.00 | 2.62 | 2.62 | 99 | 1008.6 |
| 20260505112534 | 15 | 9 | 0.0 | 0.0 | 0.00 | 2.62 | 2.62 | 99 | 1008.6 |
| 20260505112033 | 15 | 7 | 0.0 | 0.0 | 0.00 | 2.62 | 2.62 | 98 | 1008.5 |
| 20260505111532 | 15 | 9 | 0.0 | 0.0 | 0.00 | 2.62 | 2.62 | 98 | 1008.7 |
| 20260505111028 | 15 | 15 | 0.0 | 0.0 | 0.00 | 2.62 | 2.62 | 98 | 1008.7 |
| 20260505110525 | 15 | 15 | 0.0 | 0.0 | 0.00 | 2.62 | 2.62 | 98 | 1008.7 |
| 20260505101957 | 15 | 306 | 0.0 | 0.0 | 0.00 | 2.62 | 2.62 | 98 | 1007.9 |
| 20260505101455 | 15 | 49 | 0.0 | 0.0 | 0.00 | 2.62 | 2.62 | 98 | 1008.3 |
| 20260505100951 | 15 | 8 | 0.0 | 0.0 | 0.00 | 2.62 | 2.62 | 98 | 1008.8 |
| 20260505100449 | 15 | 19 | 0.0 | 0.0 | 0.43 | 2.62 | 2.62 | 98 | 1008.8 |
| 20260505095944 | 15 | 47 | 0.0 | 0.0 | 0.43 | 2.62 | 2.62 | 98 | 1008.3 |
| 20260505095441 | 15 | 60 | 0.0 | 0.0 | 0.00 | 2.54 | 2.54 | 97 | 1008.7 |
| 20260505094938 | 15 | 40 | 0.0 | 0.0 | 0.18 | 2.54 | 2.54 | 97 | 1008.7 |
| 20260505094435 | 15 | 8 | 0.0 | 0.0 | 0.36 | 2.54 | 2.54 | 97 | 1007.8 |
| 20260505093931 | 15 | 43 | 0.0 | 0.0 | 0.30 | 2.51 | 2.51 | 97 | 1007.7 |
| 20260505093428 | 15 | 59 | 0.0 | 1.6 | 0.43 | 2.49 | 2.49 | 97 | 1007.8 |
| 20260505092925 | 15 | 28 | 0.0 | 1.6 | 0.71 | 2.44 | 2.44 | 96 | 1008.6 |
| 20260505092423 | 15 | 342 | 1.6 | 1.6 | 3.07 | 2.39 | 2.39 | 96 | 1008.1 |
| 20260505091920 | 15 | 99 | 0.0 | 3.2 | 6.83 | 2.29 | 2.29 | 96 | 1008.5 |
| 20260505091417 | 15 | 62 | 1.6 | 4.8 | 7.62 | 1.75 | 1.75 | 95 | 1009.0 |
| 20260505090915 | 15 | 33 | 0.0 | 6.4 | 3.48 | 0.94 | 0.94 | 94 | 1009.1 |
| 20260505090413 | 15 | 124 | 1.6 | 3.2 | 0.79 | 0.48 | 0.48 | 95 | 1008.5 |
| 20260505085910 | 15 | 350 | 3.2 | 4.8 | 0.18 | 0.38 | 0.38 | 94 | 1006.7 |
| 20260505085408 | 15 | 50 | 0.0 | 3.2 | 0.13 | 0.36 | 0.36 | 94 | 1005.3 |
| 20260505084906 | 15 | 29 | 0.0 | 3.2 | 0.48 | 0.36 | 0.36 | 93 | 1005.4 |
| 20260505084404 | 15 | 43 | 1.6 | 4.8 | 0.48 | 0.33 | 0.33 | 92 | 1006.0 |
| 20260505083901 | 15 | 323 | 3.2 | 4.8 | 0.30 | 0.28 | 0.28 | 93 | 1007.2 |
| 20260505083359 | 15 | 353 | 0.0 | 1.6 | 0.30 | 0.25 | 0.25 | 93 | 1006.2 |
| 20260505082855 | 15 | 338 | 3.2 | 3.2 | 0.43 | 0.23 | 0.23 | 93 | 1007.3 |
| 20260505082351 | 15 | 23 | 0.0 | 1.6 | 0.30 | 0.18 | 0.18 | 92 | 1007.5 |
| 20260505081848 | 15 | 44 | 0.0 | 0.0 | 0.30 | 0.15 | 0.15 | 90 | 1007.5 |
| 20260505081345 | 16 | 8 | 1.6 | 4.8 | 0.30 | 0.13 | 0.13 | 89 | 1007.7 |
| 20260505080841 | 16 | 36 | 0.0 | 3.2 | 0.30 | 0.10 | 0.10 | 84 | 1007.9 |
| 20260505080337 | 16 | 343 | 1.6 | 3.2 | 0.30 | 0.08 | 0.08 | 85 | 1007.9 |
| 20260505075833 | 16 | 340 | 3.2 | 9.7 | 0.30 | 0.05 | 0.05 | 83 | 1007.5 |
| 20260505075330 | 16 | 329 | 0.0 | 11.3 | 0.13 | 0.03 | 0.03 | 80 | 1007.1 |
| 20260505074827 | 16 | 348 | 1.6 | 6.4 | 0.00 | 0.00 | 0.00 | 81 | 1006.8 |
| 20260505074324 | 17 | 328 | 3.2 | 4.8 | 0.00 | 0.00 | 0.00 | 77 | 1006.6 |
| 20260505073822 | 17 | 76 | 4.8 | 6.4 | 0.00 | 0.00 | 0.00 | 74 | 1006.7 |
| 20260505073320 | 18 | 56 | 1.6 | 9.7 | 0.00 | 0.00 | 0.00 | 69 | 1007.0 |
| 20260505072816 | 18 | 1 | 0.0 | 12.9 | 0.00 | 0.00 | 0.00 | 67 | 1007.2 |
| 20260505072312 | 18 | 52 | 0.0 | 4.8 | 0.00 | 0.00 | 0.00 | 66 | 1007.0 |
| 20260505071808 | 18 | 304 | 1.6 | 6.4 | 0.00 | 0.00 | 0.00 | 66 | 1007.3 |
| 20260505071305 | 18 | 16 | 0.0 | 1.6 | 0.00 | 0.00 | 0.00 | 66 | 1007.6 |
| 20260505070803 | 18 | 349 | 0.0 | 3.2 | 0.00 | 0.00 | 0.00 | 65 | 1007.9 |
| 20260505070259 | 18 | 314 | 6.4 | 9.7 | 0.00 | 0.00 | 0.00 | 65 | 1008.2 |
| 20260505065754 | 18 | 33 | 1.6 | 1.6 | 0.00 | 0.00 | 0.00 | 65 | 1008.1 |
| 20260505065252 | 18 | 99 | 1.6 | 3.2 | 0.00 | 0.00 | 0.00 | 66 | 1008.3 |
| 20260505064749 | 18 | 2 | 3.2 | 6.4 | 0.00 | 0.00 | 0.00 | 65 | 1008.3 |
| 20260505064246 | 18 | 297 | 6.4 | 12.9 | 0.00 | 0.00 | 0.00 | 65 | 1008.5 |
| 20260505063744 | 18 | 316 | 4.8 | 6.4 | 0.00 | 0.00 | 0.00 | 65 | 1008.9 |
| 20260505063240 | 18 | 301 | 3.2 | 3.2 | 0.00 | 0.00 | 0.00 | 66 | 1008.7 |
| 20260505062736 | 18 | 355 | 3.2 | 4.8 | 0.00 | 0.00 | 0.00 | 67 | 1008.4 |
| 20260505062234 | 18 | 344 | 1.6 | 4.8 | 0.00 | 0.00 | 0.00 | 66 | 1008.7 |
| 20260505061731 | 18 | 57 | 3.2 | 9.7 | 0.00 | 0.00 | 0.00 | 66 | 1008.8 |
| 20260505061229 | 18 | 290 | 3.2 | 4.8 | 0.00 | 0.00 | 0.00 | 66 | 1008.6 |
| 20260505060726 | 18 | 40 | 0.0 | 4.8 | 0.00 | 0.00 | 0.00 | 66 | 1008.6 |
| 20260505060223 | 18 | 61 | 1.6 | 3.2 | 0.00 | 0.00 | 0.00 | 66 | 1008.9 |
| 20260505055718 | 18 | 265 | 1.6 | 12.9 | 0.00 | 0.00 | 0.00 | 65 | 1009.1 |
| 20260505055215 | 18 | 342 | 1.6 | 3.2 | 0.00 | 0.00 | 0.00 | 66 | 1009.1 |
| 20260505054712 | 18 | 19 | 1.6 | 3.2 | 0.00 | 0.00 | 0.00 | 66 | 1009.1 |
| 20260505054210 | 18 | 30 | 3.2 | 4.8 | 0.00 | 0.00 | 0.00 | 66 | 1009.0 |
| 20260505053708 | 18 | 114 | 6.4 | 6.4 | 0.00 | 0.00 | 0.00 | 66 | 1009.0 |
| 20260505053204 | 18 | 305 | 6.4 | 11.3 | 0.00 | 0.00 | 0.00 | 66 | 1009.0 |
| 20260505052701 | 18 | 28 | 1.6 | 4.8 | 0.00 | 0.00 | 0.00 | 67 | 1008.8 |
| 20260505052158 | 18 | 90 | 6.4 | 6.4 | 0.00 | 0.00 | 0.00 | 67 | 1008.9 |
| 20260505051655 | 18 | 32 | 0.0 | 3.2 | 0.00 | 0.00 | 0.00 | 67 | 1009.2 |
| 20260505051154 | 18 | 44 | 0.0 | 1.6 | 0.00 | 0.00 | 0.00 | 66 | 1009.3 |
| 20260505050651 | 18 | 318 | 1.6 | 3.2 | 0.00 | 0.00 | 0.00 | 66 | 1009.3 |
| 20260505050149 | 18 | 53 | 3.2 | 4.8 | 0.00 | 0.00 | 0.00 | 66 | 1009.3 |
| 20260505041619 | 18 | 173 | 3.2 | 6.4 | 0.00 | 0.00 | 0.00 | 65 | 1009.8 |
| 20260505041116 | 18 | 59 | 1.6 | 9.7 | 0.00 | 0.00 | 0.00 | 65 | 1010.0 |
| 20260505040613 | 18 | 46 | 1.6 | 3.2 | 0.00 | 0.00 | 0.00 | 65 | 1010.0 |
| 20260505040110 | 18 | 87 | 3.2 | 4.8 | 0.00 | 0.00 | 0.00 | 65 | 1010.2 |
| 20260505035606 | 18 | 66 | 3.2 | 3.2 | 0.00 | 0.00 | 0.00 | 66 | 1010.1 |
| 20260505035103 | 19 | 72 | 0.0 | 4.8 | 0.00 | 0.00 | 0.00 | 65 | 1010.1 |
| 20260505034559 | 19 | 317 | 3.2 | 9.7 | 0.00 | 0.00 | 0.00 | 65 | 1010.2 |
| 20260505034056 | 19 | 13 | 0.0 | 11.3 | 0.00 | 0.00 | 0.00 | 64 | 1010.1 |
| 20260505033553 | 18 | 50 | 1.6 | 3.2 | 0.00 | 0.00 | 0.00 | 64 | 1010.3 |
| 20260505033052 | 18 | 50 | 0.0 | 11.3 | 0.00 | 0.00 | 0.00 | 66 | 1010.2 |
| 20260505032549 | 19 | 103 | 6.4 | 11.3 | 0.00 | 0.00 | 0.00 | 64 | 1010.0 |
| 20260505032045 | 18 | 9 | 0.0 | 1.6 | 0.00 | 0.00 | 0.00 | 65 | 1010.2 |
| 20260505031542 | 19 | 77 | 1.6 | 4.8 | 0.00 | 0.00 | 0.00 | 64 | 1010.2 |
| 20260505031039 | 18 | 221 | 3.2 | 4.8 | 0.00 | 0.00 | 0.00 | 65 | 1010.0 |
| 20260505030536 | 19 | 187 | 3.2 | 3.2 | 0.00 | 0.00 | 0.00 | 65 | 1009.9 |
| 20260505030032 | 19 | 16 | 1.6 | 12.9 | 0.00 | 0.00 | 0.00 | 64 | 1009.9 |
| 20260505025528 | 19 | 306 | 4.8 | 6.4 | 0.00 | 0.00 | 0.00 | 64 | 1010.1 |
| 20260505025027 | 19 | 65 | 1.6 | 4.8 | 0.00 | 0.00 | 0.00 | 65 | 1010.0 |
| 20260505024523 | 19 | 43 | 0.0 | 3.2 | 0.00 | 0.00 | 0.00 | 65 | 1009.9 |
| 20260505024020 | 19 | 18 | 3.2 | 6.4 | 0.00 | 0.00 | 0.00 | 63 | 1009.6 |
| 20260505023517 | 19 | 74 | 3.2 | 4.8 | 0.00 | 0.00 | 0.00 | 64 | 1009.5 |
| 20260505023015 | 19 | 66 | 1.6 | 3.2 | 0.00 | 0.00 | 0.00 | 63 | 1009.5 |
| 20260505022513 | 19 | 326 | 0.0 | 3.2 | 0.00 | 0.00 | 0.00 | 63 | 1009.3 |
| 20260505022010 | 19 | 35 | 0.0 | 0.0 | 0.00 | 0.00 | 0.00 | 63 | 1009.3 |
| 20260505021506 | 19 | 110 | 1.6 | 9.7 | 0.00 | 0.00 | 0.00 | 63 | 1009.4 |
| 20260505021002 | 19 | 9 | 4.8 | 4.8 | 0.00 | 0.00 | 0.00 | 62 | 1009.4 |
| 20260505020457 | 19 | 96 | 4.8 | 6.4 | 0.00 | 0.00 | 0.00 | 63 | 1009.2 |
| 20260505015954 | 18 | 351 | 3.2 | 11.3 | 0.00 | 0.00 | 0.00 | 63 | 1009.4 |
| 20260505015451 | 18 | 330 | 1.6 | 1.6 | 0.00 | 0.00 | 0.00 | 64 | 1009.3 |
| 20260505014948 | 19 | 49 | 0.0 | 0.0 | 0.00 | 0.00 | 0.00 | 64 | 1009.4 |
| 20260505014445 | 19 | 50 | 1.6 | 3.2 | 0.00 | 0.00 | 0.00 | 62 | 1009.1 |
| 20260505013942 | 19 | 11 | 3.2 | 11.3 | 0.00 | 0.00 | 0.00 | 62 | 1009.1 |
| 20260505013439 | 19 | 17 | 3.2 | 4.8 | 0.00 | 0.00 | 0.00 | 63 | 1009.1 |
| 20260505012937 | 19 | 334 | 4.8 | 6.4 | 0.00 | 0.00 | 0.00 | 63 | 1009.1 |
| 20260505012435 | 19 | 153 | 0.0 | 3.2 | 0.00 | 0.00 | 0.00 | 63 | 1009.0 |
| 20260505011931 | 20 | 13 | 0.0 | 1.6 | 0.00 | 0.00 | 0.00 | 61 | 1008.8 |
| 20260505011427 | 20 | 49 | 3.2 | 9.7 | 0.00 | 0.00 | 0.00 | 61 | 1009.1 |
| 20260505010924 | 20 | 316 | 3.2 | 4.8 | 0.00 | 0.00 | 0.00 | 61 | 1009.1 |
| 20260505010420 | 20 | 66 | 4.8 | 11.3 | 0.00 | 0.00 | 0.00 | 61 | 1008.9 |
| 20260505005916 | 20 | 89 | 0.0 | 3.2 | 0.00 | 0.00 | 0.00 | 60 | 1008.9 |
| 20260505005413 | 20 | 5 | 0.0 | 3.2 | 0.00 | 0.00 | 0.00 | 60 | 1008.8 |
| 20260505004911 | 20 | 56 | 1.6 | 6.4 | 0.00 | 0.00 | 0.00 | 60 | 1008.9 |
| 20260505004407 | 20 | 27 | 0.0 | 3.2 | 0.00 | 0.00 | 0.00 | 60 | 1009.1 |
| 20260505003904 | 20 | 4 | 1.6 | 6.4 | 0.00 | 0.00 | 0.00 | 60 | 1009.0 |
| 20260505003401 | 20 | 289 | 11.3 | 14.5 | 0.00 | 0.00 | 0.00 | 58 | 1009.1 |
| 20260505002857 | 20 | 82 | 3.2 | 3.2 | 0.00 | 0.00 | 0.00 | 58 | 1009.0 |
| 20260505002354 | 20 | 285 | 4.8 | 9.7 | 0.00 | 0.00 | 0.00 | 59 | 1008.9 |
| 20260505001853 | 21 | 314 | 4.8 | 6.4 | 0.00 | 0.00 | 0.00 | 58 | 1009.0 |
| 20260505001349 | 21 | 25 | 1.6 | 9.7 | 0.00 | 0.00 | 0.00 | 58 | 1009.2 |
| 20260505000847 | 21 | 34 | 1.6 | 4.8 | 0.00 | 0.00 | 0.00 | 56 | 1008.9 |
| 20260505000344 | 21 | 77 | 3.2 | 9.7 | 0.00 | 0.00 | 0.00 | 55 | 1009.2 |
| 20260504235841 | 21 | 268 | 1.6 | 9.7 | 0.00 | 0.00 | 0.00 | 55 | 1008.9 |
| 20260504235338 | 21 | 333 | 0.0 | 11.3 | 0.00 | 0.00 | 0.00 | 55 | 1008.8 |
| 20260504234834 | 22 | 52 | 1.6 | 9.7 | 0.00 | 0.00 | 0.00 | 54 | 1008.9 |
| 20260504234332 | 22 | 13 | 0.0 | 3.2 | 0.00 | 0.00 | 0.00 | 53 | 1008.8 |
| 20260504233828 | 22 | 299 | 1.6 | 4.8 | 0.00 | 0.00 | 0.00 | 53 | 1008.8 |
| 20260504233324 | 23 | 57 | 0.0 | 9.7 | 0.00 | 0.00 | 0.00 | 52 | 1008.7 |
| 20260504232821 | 23 | 294 | 3.2 | 4.8 | 0.00 | 0.00 | 0.00 | 51 | 1008.9 |
| 20260504232318 | 23 | 340 | 0.0 | 3.2 | 0.00 | 0.00 | 0.00 | 49 | 1008.8 |
| 20260504231815 | 24 | 347 | 3.2 | 4.8 | 0.00 | 0.00 | 0.00 | 48 | 1009.0 |
| 20260504231312 | 23 | 354 | 0.0 | 3.2 | 0.00 | 0.00 | 0.00 | 48 | 1009.0 |
| 20260504230808 | 25 | 105 | 3.2 | 4.8 | 0.00 | 0.00 | 0.00 | 50 | 1009.2 |
| 20260504230306 | 24 | 82 | 3.2 | 3.2 | 0.00 | 0.00 | 0.00 | 48 | 1009.1 |
| 20260504225804 | 25 | 336 | 1.6 | 4.8 | 0.00 | 0.00 | 0.00 | 47 | 1009.3 |
| 20260504225300 | 24 | 5 | 1.6 | 3.2 | 0.00 | 0.00 | 0.00 | 47 | 1009.4 |
| 20260504224757 | 24 | 114 | 6.4 | 11.3 | 0.00 | 0.00 | 0.00 | 48 | 1009.4 |
| 20260504224255 | 24 | 107 | 6.4 | 6.4 | 0.00 | 0.00 | 0.00 | 51 | 1009.4 |
| 20260504223751 | 24 | 289 | 6.4 | 6.4 | 0.00 | 0.00 | 0.00 | 51 | 1009.4 |
| 20260504223247 | 25 | 359 | 0.0 | 6.4 | 0.00 | 0.00 | 0.00 | 49 | 1009.5 |
| 20260504222744 | 25 | 13 | 0.0 | 1.6 | 0.00 | 0.00 | 0.00 | 48 | 1009.5 |
| 20260504222240 | 25 | 23 | 0.0 | 9.7 | 0.00 | 0.00 | 0.00 | 48 | 1009.5 |
| 20260504221738 | 25 | 312 | 1.6 | 6.4 | 0.00 | 0.00 | 0.00 | 48 | 1009.6 |
| 20260504221235 | 25 | 310 | 4.8 | 17.7 | 0.00 | 0.00 | 0.00 | 44 | 1009.6 |
| 20260504220731 | 25 | 46 | 1.6 | 9.7 | 0.00 | 0.00 | 0.00 | 45 | 1009.5 |
| 20260504220229 | 26 | 297 | 6.4 | 12.9 | 0.00 | 0.00 | 0.00 | 46 | 1009.8 |
| 20260504215726 | 26 | 15 | 1.6 | 4.8 | 0.00 | 0.00 | 0.00 | 44 | 1009.5 |
| 20260504215223 | 26 | 88 | 3.2 | 11.3 | 0.00 | 0.00 | 0.00 | 45 | 1009.5 |
| 20260504214718 | 26 | 279 | 4.8 | 12.9 | 0.00 | 0.00 | 0.00 | 43 | 1009.9 |
| 20260504214215 | 25 | 307 | 6.4 | 12.9 | 0.00 | 0.00 | 0.00 | 43 | 1009.6 |
| 20260504213712 | 25 | 85 | 3.2 | 4.8 | 0.00 | 0.00 | 0.00 | 44 | 1009.6 |
| 20260504213208 | 25 | 23 | 1.6 | 11.3 | 0.00 | 0.00 | 0.00 | 43 | 1010.0 |
| 20260504212705 | 25 | 262 | 3.2 | 9.7 | 0.00 | 0.00 | 0.00 | 43 | 1009.9 |
| 20260504212202 | 25 | 306 | 1.6 | 16.1 | 0.00 | 0.00 | 0.00 | 43 | 1010.2 |
| 20260504211659 | 25 | 261 | 9.7 | 12.9 | 0.00 | 0.00 | 0.00 | 43 | 1010.3 |
| 20260504211155 | 26 | 350 | 9.7 | 16.1 | 0.00 | 0.00 | 0.00 | 40 | 1010.2 |
| 20260504210653 | 26 | 282 | 3.2 | 9.7 | 0.00 | 0.00 | 0.00 | 40 | 1010.2 |
| 20260504210149 | 26 | 31 | 3.2 | 6.4 | 0.00 | 0.00 | 0.00 | 41 | 1010.3 |
| 20260504205647 | 26 | 211 | 1.6 | 6.4 | 0.00 | 0.00 | 0.00 | 41 | 1010.2 |
| 20260504205144 | 26 | 346 | 3.2 | 16.1 | 0.00 | 0.00 | 0.00 | 40 | 1010.4 |
| 20260504204642 | 26 | 89 | 3.2 | 9.7 | 0.00 | 0.00 | 0.00 | 42 | 1010.1 |
| 20260504204141 | 26 | 135 | 8.0 | 11.3 | 0.00 | 0.00 | 0.00 | 43 | 1010.3 |
| 20260504203639 | 26 | 56 | 0.0 | 0.0 | 0.00 | 0.00 | 0.00 | 44 | 1010.4 |
| 20260504203137 | 26 | 303 | 3.2 | 20.9 | 0.00 | 0.00 | 0.00 | 41 | 1010.5 |
| 20260504202637 | 27 | 56 | 3.2 | 6.4 | 0.00 | 0.00 | 0.00 | 43 | 1010.6 |
| 20260504202134 | 26 | 268 | 3.2 | 4.8 | 0.00 | 0.00 | 0.00 | 43 | 1010.6 |
| 20260504201631 | 27 | 53 | 4.8 | 22.5 | 0.00 | 0.00 | 0.00 | 40 | 1010.5 |
| 20260504201129 | 26 | 281 | 6.4 | 6.4 | 0.00 | 0.00 | 0.00 | 42 | 1011.0 |
| 20260504200626 | 26 | 287 | 6.4 | 9.7 | 0.00 | 0.00 | 0.00 | 42 | 1011.0 |
| 20260504200122 | 25 | 272 | 12.9 | 14.5 | 0.00 | 0.00 | 0.00 | 43 | 1010.9 |
| 20260504195618 | 25 | 75 | 4.8 | 11.3 | 0.00 | 0.00 | 0.00 | 45 | 1010.8 |
| 20260504195114 | 26 | 319 | 9.7 | 14.5 | 0.00 | 0.00 | 0.00 | 42 | 1011.1 |
| 20260504194611 | 26 | 75 | 3.2 | 6.4 | 0.00 | 0.00 | 0.00 | 42 | 1010.9 |
| 20260504194107 | 26 | 291 | 3.2 | 11.3 | 0.00 | 0.00 | 0.00 | 41 | 1011.1 |
| 20260504193603 | 26 | 99 | 9.7 | 12.9 | 0.00 | 0.00 | 0.00 | 45 | 1010.7 |
| 20260504193102 | 26 | 9 | 0.0 | 3.2 | 0.00 | 0.00 | 0.00 | 46 | 1011.0 |
| 20260504192600 | 26 | 43 | 6.4 | 20.9 | 0.00 | 0.00 | 0.00 | 43 | 1011.2 |
| 20260504192058 | 26 | 39 | 0.0 | 9.7 | 0.00 | 0.00 | 0.00 | 45 | 1011.2 |
| 20260504191556 | 26 | 342 | 4.8 | 12.9 | 0.00 | 0.00 | 0.00 | 41 | 1011.4 |
| 20260504191051 | 25 | 39 | 0.0 | 9.7 | 0.00 | 0.00 | 0.00 | 45 | 1011.3 |
| 20260504190548 | 25 | 14 | 3.2 | 4.8 | 0.00 | 0.00 | 0.00 | 43 | 1011.3 |
| 20260504190044 | 25 | 293 | 11.3 | 14.5 | 0.00 | 0.00 | 0.00 | 44 | 1011.4 |
| 20260504185541 | 25 | 285 | 6.4 | 9.7 | 0.00 | 0.00 | 0.00 | 44 | 1011.5 |
| 20260504185038 | 25 | 214 | 9.7 | 16.1 | 0.00 | 0.00 | 0.00 | 45 | 1011.4 |
| 20260504184533 | 24 | 78 | 6.4 | 6.4 | 0.00 | 0.00 | 0.00 | 47 | 1011.3 |
| 20260504184029 | 25 | 136 | 3.2 | 4.8 | 0.00 | 0.00 | 0.00 | 47 | 1011.7 |
| 20260504183526 | 25 | 342 | 0.0 | 4.8 | 0.00 | 0.00 | 0.00 | 48 | 1011.5 |
| 20260504183024 | 24 | 304 | 9.7 | 12.9 | 0.00 | 0.00 | 0.00 | 46 | 1011.6 |
| 20260504182521 | 24 | 276 | 3.2 | 9.7 | 0.00 | 0.00 | 0.00 | 45 | 1012.0 |
| 20260504182018 | 23 | 58 | 1.6 | 14.5 | 0.00 | 0.00 | 0.00 | 46 | 1011.8 |
| 20260504181515 | 24 | 145 | 1.6 | 16.1 | 0.00 | 0.00 | 0.00 | 49 | 1011.8 |
| 20260504181014 | 23 | 45 | 3.2 | 4.8 | 0.00 | 0.00 | 0.00 | 47 | 1012.0 |
| 20260504180512 | 23 | 326 | 4.8 | 9.7 | 0.00 | 0.00 | 0.00 | 46 | 1011.7 |
| 20260504180010 | 24 | 238 | 9.7 | 16.1 | 0.00 | 0.00 | 0.00 | 46 | 1012.0 |
| 20260504175507 | 24 | 63 | 0.0 | 4.8 | 0.00 | 0.00 | 0.00 | 51 | 1011.7 |
| 20260504175004 | 23 | 98 | 4.8 | 9.7 | 0.00 | 0.00 | 0.00 | 49 | 1011.7 |
| 20260504174502 | 23 | 286 | 6.4 | 11.3 | 0.00 | 0.00 | 0.00 | 49 | 1012.0 |
| 20260504173959 | 23 | 47 | 0.0 | 3.2 | 0.00 | 0.00 | 0.00 | 50 | 1012.1 |
| 20260504173455 | 23 | 126 | 3.2 | 6.4 | 0.00 | 0.00 | 0.00 | 50 | 1012.3 |
| 20260504172953 | 23 | 62 | 4.8 | 9.7 | 0.00 | 0.00 | 0.00 | 52 | 1012.3 |
| 20260504172448 | 22 | 162 | 3.2 | 9.7 | 0.00 | 0.00 | 0.00 | 50 | 1012.2 |
| 20260504171945 | 22 | 57 | 1.6 | 3.2 | 0.00 | 0.00 | 0.00 | 52 | 1012.3 |
| 20260504171443 | 22 | 339 | 9.7 | 24.1 | 0.00 | 0.00 | 0.00 | 48 | 1012.5 |
| 20260504170939 | 22 | 130 | 4.8 | 9.7 | 0.00 | 0.00 | 0.00 | 49 | 1012.5 |
| 20260504170436 | 22 | 71 | 1.6 | 3.2 | 0.00 | 0.00 | 0.00 | 52 | 1012.5 |
| 20260504160355 | 21 | 158 | 8.0 | 12.9 | 0.00 | 0.00 | 0.00 | 51 | 1013.0 |